Time;durP1;ratioP1;P1;durP2;ratioP2;P2;SDS_P1;SDS_P2;PMS_P1;PMS_P2;Temp;Humidity;BMP_temperature;BMP_pressure;BME280_temperature;BME280_humidity;BME280_pressure;Samples;Min_cycle;Max_cycle;Signal;HPM_P1;HPM_P2
2023/04/07 00:01:35;;;;;;;1.60;1.50;;;;;;;4.48;48.11;100104.22;7351198;19;20095;-66
2023/04/07 00:03:59;;;;;;;6.22;2.45;;;;;;;4.41;48.17;100091.31;7347180;19;20018;-69
2023/04/07 00:06:24;;;;;;;3.47;1.92;;;;;;;4.40;48.22;100094.88;7345190;19;20014;-68
2023/04/07 00:08:49;;;;;;;6.15;2.28;;;;;;;4.38;48.37;100094.94;7344087;19;20082;-69
2023/04/07 00:11:13;;;;;;;3.88;2.35;;;;;;;4.37;48.44;100099.38;7343250;19;20468;-70
2023/04/07 00:13:38;;;;;;;2.72;1.83;;;;;;;4.40;48.37;100101.03;7342304;19;20102;-67
2023/04/07 00:16:02;;;;;;;3.80;2.65;;;;;;;4.40;48.37;100106.31;7344107;19;20010;-69
2023/04/07 00:18:27;;;;;;;2.42;1.92;;;;;;;4.41;48.22;100100.09;7346609;19;20042;-69
2023/04/07 00:20:53;;;;;;;3.70;2.50;;;;;;;4.37;48.23;100096.72;7346520;19;20011;-70
2023/04/07 00:23:18;;;;;;;5.70;3.22;;;;;;;4.33;48.51;100091.63;7343827;19;20017;-68
2023/04/07 00:25:47;;;;;;;6.45;2.85;;;;;;;4.37;48.33;100090.59;7345209;19;20090;-70
2023/04/07 00:28:11;;;;;;;3.75;2.15;;;;;;;4.28;48.40;100088.31;7341507;19;20037;-70
2023/04/07 00:30:36;;;;;;;2.75;1.90;;;;;;;4.27;48.66;100095.38;7342099;19;20019;-71
2023/04/07 00:33:01;;;;;;;6.40;2.83;;;;;;;4.26;48.55;100104.19;7344103;19;20053;-68
2023/04/07 00:35:31;;;;;;;2.80;2.17;;;;;;;4.34;48.52;100102.13;7342505;19;20074;-68
2023/04/07 00:38:06;;;;;;;3.38;2.38;;;;;;;4.26;48.44;100095.41;7343155;19;20050;-67
2023/04/07 00:40:30;;;;;;;3.33;2.28;;;;;;;4.18;48.63;100095.69;7340746;19;20101;-68
2023/04/07 00:42:55;;;;;;;7.05;2.92;;;;;;;4.22;48.68;100097.31;7340234;19;20416;-67
2023/04/07 00:45:20;;;;;;;8.65;3.20;;;;;;;4.24;48.59;100100.75;7340686;19;20078;-67
2023/04/07 00:47:45;;;;;;;4.22;2.60;;;;;;;4.15;48.74;100110.81;7339915;19;20014;-72
2023/04/07 00:50:13;;;;;;;7.25;2.90;;;;;;;4.09;48.88;100088.13;7345425;19;20022;-70
2023/04/07 00:52:39;;;;;;;4.63;2.30;;;;;;;4.11;48.93;100098.63;7341483;19;20018;-66
2023/04/07 00:55:04;;;;;;;5.07;2.83;;;;;;;4.09;48.96;100095.19;7340958;19;20023;-69
2023/04/07 00:57:28;;;;;;;3.13;2.30;;;;;;;4.08;48.88;100098.75;7342222;19;20022;-66
2023/04/07 00:59:54;;;;;;;4.25;2.30;;;;;;;4.10;48.65;100094.28;7341994;19;20010;-67
2023/04/07 01:02:26;;;;;;;3.88;2.00;;;;;;;4.07;48.76;100094.38;7339449;19;20010;-69
2023/04/07 01:04:57;;;;;;;2.25;2.05;;;;;;;4.04;48.92;100095.38;7339912;19;20078;-68
2023/04/07 01:07:31;;;;;;;4.88;2.17;;;;;;;4.03;48.90;100095.44;7340247;19;20532;-67
2023/04/07 01:10:07;;;;;;;6.65;2.70;;;;;;;4.07;48.94;100097.00;7339514;19;20007;-68
2023/04/07 01:12:53;;;;;;;4.53;2.42;;;;;;;4.05;48.93;100101.50;7342375;19;20015;-69
2023/04/07 01:15:23;;;;;;;5.55;2.67;;;;;;;4.00;48.92;100099.03;7340534;19;20358;-66
2023/04/07 01:17:58;;;;;;;3.53;2.67;;;;;;;3.97;49.09;100107.06;7339280;19;20011;-68
2023/04/07 01:20:29;;;;;;;6.95;2.53;;;;;;;3.92;49.08;100109.88;7339775;19;20104;-66
2023/04/07 01:23:04;;;;;;;;;;;;;;;4.07;48.14;100102.28;7345075;19;20046;-69
2023/04/07 01:25:42;;;;;;;2.90;2.30;;;;;;;3.97;48.93;100099.16;7341442;19;19918;-68
2023/04/07 01:28:36;;;;;;;8.43;2.45;;;;;;;3.95;48.96;100101.84;7337796;19;20018;-69
2023/04/07 01:31:04;;;;;;;4.47;2.33;;;;;;;3.89;49.21;100110.00;7339869;19;20033;-66
2023/04/07 01:33:31;;;;;;;5.00;2.38;;;;;;;3.79;49.28;100110.38;7341503;19;20031;-66
2023/04/07 01:35:58;;;;;;;3.28;2.30;;;;;;;3.83;49.48;100107.59;7338700;19;20082;-68
2023/04/07 01:38:25;;;;;;;6.90;2.35;;;;;;;3.78;49.43;100108.66;7341061;19;20014;-67
2023/04/07 01:40:50;;;;;;;4.45;2.38;;;;;;;3.81;49.67;100108.56;7339359;19;20014;-66
2023/04/07 01:43:15;;;;;;;5.15;2.33;;;;;;;3.78;49.53;100104.25;7335827;19;20021;-67
2023/04/07 01:45:42;;;;;;;2.50;1.48;;;;;;;3.78;49.42;100098.97;7337399;19;20054;-68
2023/04/07 01:48:08;;;;;;;4.70;2.00;;;;;;;3.72;49.92;100100.97;7334673;19;20822;-72
2023/04/07 01:50:33;;;;;;;7.75;2.78;;;;;;;3.67;50.07;100098.50;7337754;19;20014;-69
2023/04/07 01:52:59;;;;;;;7.15;2.40;;;;;;;3.62;50.38;100106.56;7340839;19;20014;-68
2023/04/07 01:55:25;;;;;;;3.25;2.30;;;;;;;3.56;50.42;100098.88;7340768;19;20037;-69
2023/04/07 01:58:02;;;;;;;;;;;;;;;3.71;49.26;100105.41;7340003;19;20018;-69
2023/04/07 02:00:27;;;;;;;9.10;2.53;;;;;;;3.57;50.16;100113.78;7340944;19;19923;-66
2023/04/07 02:02:58;;;;;;;4.15;2.17;;;;;;;3.56;50.16;100117.34;7343477;19;20011;-66
2023/04/07 02:05:23;;;;;;;7.82;2.22;;;;;;;3.45;50.51;100100.19;7341009;19;20019;-65
2023/04/07 02:07:57;;;;;;;5.50;2.45;;;;;;;3.46;50.78;100102.78;7338176;19;20496;-66
2023/04/07 02:10:24;;;;;;;;;;;;;;;3.49;49.57;100110.56;7338616;19;20750;-67
2023/04/07 02:12:51;;;;;;;3.40;1.85;;;;;;;3.47;50.50;100101.00;7337980;19;19925;-72
2023/04/07 02:15:18;;;;;;;3.25;2.30;;;;;;;3.37;50.91;100118.91;7338600;19;20018;-66
2023/04/07 02:17:47;;;;;;;4.85;3.70;;;;;;;3.33;51.33;100108.50;7338799;19;20011;-68
2023/04/07 02:20:20;;;;;;;3.08;2.30;;;;;;;3.31;51.23;100111.19;7339973;19;20018;-72
2023/04/07 02:22:46;;;;;;;4.25;2.63;;;;;;;3.24;51.54;100118.47;7337860;19;20089;-69
2023/04/07 02:25:27;;;;;;;5.43;2.42;;;;;;;3.23;51.38;100108.84;7338144;19;20048;-65
2023/04/07 02:27:54;;;;;;;8.35;2.22;;;;;;;3.19;51.81;100111.63;7336394;19;20019;-65
2023/04/07 02:30:19;;;;;;;4.22;2.45;;;;;;;3.16;51.83;100117.00;7338504;19;20014;-70
2023/04/07 02:32:44;;;;;;;6.38;2.13;;;;;;;3.14;51.97;100122.31;7344036;19;20126;-73
2023/04/07 02:35:10;;;;;;;6.07;2.42;;;;;;;3.16;51.96;100123.09;7340872;19;20029;-70
2023/04/07 02:37:34;;;;;;;4.03;2.30;;;;;;;3.09;52.00;100110.19;7342551;19;20470;-73
2023/04/07 02:39:59;;;;;;;9.95;3.20;;;;;;;3.11;52.21;100122.41;7340111;19;20762;-73
2023/04/07 02:42:24;;;;;;;8.35;2.58;;;;;;;3.10;52.06;100112.78;7336928;19;20031;-71
2023/04/07 02:44:50;;;;;;;5.70;1.95;;;;;;;3.12;52.09;100116.25;7340676;19;20011;-70
2023/04/07 02:47:14;;;;;;;5.30;2.25;;;;;;;3.09;52.00;100111.06;7335939;19;20032;-71
2023/04/07 02:49:43;;;;;;;5.90;2.88;;;;;;;3.14;51.93;100124.97;7338302;19;20028;-72
2023/04/07 02:52:08;;;;;;;3.40;2.40;;;;;;;3.10;51.99;100118.06;7338334;19;20026;-71
2023/04/07 02:54:32;;;;;;;6.82;2.10;;;;;;;3.10;52.07;100130.38;7336913;19;20018;-72
2023/04/07 02:56:59;;;;;;;3.25;2.20;;;;;;;3.10;52.37;100127.72;7336757;19;20011;-70
2023/04/07 02:59:25;;;;;;;6.07;2.25;;;;;;;3.06;52.42;100129.59;7339832;19;20015;-72
2023/04/07 03:01:50;;;;;;;8.15;2.50;;;;;;;3.12;52.06;100124.16;7341274;19;20088;-71
2023/04/07 03:04:16;;;;;;;2.90;2.58;;;;;;;3.09;52.26;100121.59;7336810;19;20026;-71
2023/04/07 03:06:48;;;;;;;3.55;2.15;;;;;;;3.10;52.35;100131.22;7337616;19;20011;-71
2023/04/07 03:09:14;;;;;;;16.15;2.63;;;;;;;3.15;52.24;100123.19;7341371;19;20010;-71
2023/04/07 03:11:40;;;;;;;6.25;2.38;;;;;;;3.12;52.15;100126.78;7339570;19;20021;-73
2023/04/07 03:14:06;;;;;;;6.70;2.22;;;;;;;3.16;52.05;100123.09;7354141;19;20013;-70
2023/04/07 03:16:35;;;;;;;7.93;2.45;;;;;;;3.11;52.09;100135.59;7351486;19;20018;-66
2023/04/07 03:19:08;;;;;;;5.20;1.90;;;;;;;3.13;52.02;100133.78;7343237;19;20015;-64
2023/04/07 03:21:40;;;;;;;4.18;2.13;;;;;;;3.27;51.88;100133.31;7343975;19;20014;-70
2023/04/07 03:24:08;;;;;;;4.07;2.22;;;;;;;3.38;51.86;100138.22;7344519;19;20043;-75
2023/04/07 03:26:34;;;;;;;3.28;2.17;;;;;;;3.50;51.67;100143.91;7346860;19;20421;-72
2023/04/07 03:29:06;;;;;;;4.90;2.47;;;;;;;3.66;51.20;100131.06;7344365;19;20074;-72
2023/04/07 03:31:32;;;;;;;6.72;2.42;;;;;;;3.78;50.88;100137.66;7347664;19;20448;-73
2023/04/07 03:33:57;;;;;;;6.00;2.97;;;;;;;3.84;50.82;100137.44;7351397;19;20011;-72
2023/04/07 03:36:23;;;;;;;3.88;2.33;;;;;;;3.94;50.60;100137.06;7345861;19;20020;-73
2023/04/07 03:38:48;;;;;;;4.35;1.73;;;;;;;4.10;50.14;100128.56;7347269;19;20473;-74
2023/04/07 03:41:15;;;;;;;5.15;2.50;;;;;;;4.16;50.06;100139.78;7345705;19;20088;-72
2023/04/07 03:43:40;;;;;;;4.55;2.38;;;;;;;4.26;50.07;100137.66;7346031;19;20011;-72
2023/04/07 03:46:05;;;;;;;5.38;3.15;;;;;;;4.44;49.54;100150.13;7347539;19;20018;-71
2023/04/07 03:48:31;;;;;;;5.38;2.80;;;;;;;4.55;49.29;100158.50;7342471;19;20474;-72
2023/04/07 03:51:06;;;;;;;9.38;2.90;;;;;;;4.69;48.79;100142.97;7344065;19;20037;-71
2023/04/07 03:53:32;;;;;;;13.45;3.13;;;;;;;4.85;48.71;100150.31;7344889;19;20082;-72
2023/04/07 03:56:01;;;;;;;2.83;2.45;;;;;;;4.98;48.47;100149.72;7344953;19;20026;-73
2023/04/07 03:58:45;;;;;;;11.38;3.22;;;;;;;5.22;48.38;100155.78;7344902;19;20021;-72
2023/04/07 04:01:15;;;;;;;5.15;2.75;;;;;;;5.47;47.95;100145.06;7345153;19;20379;-73
2023/04/07 04:03:42;;;;;;;5.95;3.33;;;;;;;5.69;46.93;100158.22;7344466;19;20014;-73
2023/04/07 04:06:21;;;;;;;11.60;2.72;;;;;;;5.81;46.49;100144.44;7348717;19;20045;-71
2023/04/07 04:08:47;;;;;;;6.85;2.85;;;;;;;5.78;46.58;100150.72;7345282;19;20018;-71
2023/04/07 04:11:13;;;;;;;5.25;2.33;;;;;;;5.82;46.18;100152.31;7343143;19;20017;-71
2023/04/07 04:13:44;;;;;;;6.70;3.10;;;;;;;5.90;45.99;100146.72;7346557;19;20864;-71
2023/04/07 04:16:09;;;;;;;15.10;3.15;;;;;;;6.05;45.66;100146.03;7343574;19;20010;-72
2023/04/07 04:18:35;;;;;;;11.70;3.20;;;;;;;6.18;45.33;100155.16;7342735;19;20456;-69
2023/04/07 04:21:01;;;;;;;4.60;2.67;;;;;;;6.34;45.29;100151.78;7341566;19;20457;-72
2023/04/07 04:23:27;;;;;;;7.55;2.88;;;;;;;6.39;44.95;100141.84;7342481;19;20040;-71
2023/04/07 04:25:59;;;;;;;4.85;3.13;;;;;;;6.54;44.47;100160.56;7345869;19;20330;-71
2023/04/07 04:28:26;;;;;;;13.20;3.20;;;;;;;6.67;44.25;100150.22;7339123;19;20015;-71
2023/04/07 04:30:53;;;;;;;12.70;3.05;;;;;;;6.72;44.14;100150.88;7340978;19;20102;-70
2023/04/07 04:33:20;;;;;;;9.10;2.67;;;;;;;6.81;43.70;100146.91;7342450;19;20043;-71
2023/04/07 04:35:57;;;;;;;7.10;2.92;;;;;;;6.91;43.88;100149.03;7342362;19;20022;-71
2023/04/07 04:38:25;;;;;;;8.77;3.03;;;;;;;6.89;43.76;100147.41;7341194;19;20014;-70
2023/04/07 04:41:22;;;;;;;9.68;3.30;;;;;;;6.98;43.52;100152.28;7342418;19;20014;-71
2023/04/07 04:43:50;;;;;;;4.07;2.22;;;;;;;7.06;43.69;100160.72;7340501;19;20010;-72
2023/04/07 04:46:24;;;;;;;5.20;2.22;;;;;;;7.26;43.50;100170.31;7343803;19;20014;-72
2023/04/07 04:48:50;;;;;;;10.90;2.78;;;;;;;7.21;42.94;100159.09;7343373;19;20010;-72
2023/04/07 04:51:25;;;;;;;5.55;2.60;;;;;;;7.33;43.20;100161.16;7343551;19;20007;-72
2023/04/07 04:53:57;;;;;;;8.18;3.45;;;;;;;7.35;42.90;100156.59;7346881;19;20387;-73
2023/04/07 04:56:34;;;;;;;8.10;3.15;;;;;;;7.61;42.57;100164.09;7346055;19;20010;-73
2023/04/07 04:59:00;;;;;;;5.50;3.10;;;;;;;7.73;42.38;100156.47;7346692;19;20002;-71
2023/04/07 05:01:34;;;;;;;7.10;3.22;;;;;;;7.91;41.83;100166.09;7346086;19;20094;-72
2023/04/07 05:04:08;;;;;;;5.53;3.22;;;;;;;7.96;41.50;100164.09;7345102;19;20513;-74
2023/04/07 05:06:35;;;;;;;4.13;2.42;;;;;;;8.11;41.58;100163.28;7345639;19;20025;-71
2023/04/07 05:09:05;;;;;;;5.80;2.78;;;;;;;8.09;41.23;100173.13;7346240;19;20011;-72
2023/04/07 05:11:40;;;;;;;10.15;3.45;;;;;;;8.19;41.10;100177.00;7342617;19;20014;-73
2023/04/07 05:14:05;;;;;;;9.00;3.25;;;;;;;8.38;40.84;100179.56;7343689;19;20045;-71
2023/04/07 05:16:30;;;;;;;7.60;3.65;;;;;;;8.44;40.47;100178.38;7342347;19;20015;-72
2023/04/07 05:18:56;;;;;;;3.67;2.92;;;;;;;8.58;40.64;100171.34;7345989;19;20079;-73
2023/04/07 05:21:23;;;;;;;11.18;3.55;;;;;;;8.78;40.21;100174.72;7343779;19;20007;-71
2023/04/07 05:23:53;;;;;;;7.30;3.75;;;;;;;9.34;39.70;100175.03;7345002;19;20019;-70
2023/04/07 05:26:20;;;;;;;8.88;3.22;;;;;;;9.83;39.05;100166.78;7345836;19;20007;-70
2023/04/07 05:28:46;;;;;;;12.07;3.53;;;;;;;10.19;37.92;100169.94;7344238;19;20370;-71
2023/04/07 05:31:16;;;;;;;3.85;2.53;;;;;;;10.63;37.88;100168.97;7343947;19;20483;-69
2023/04/07 05:33:41;;;;;;;9.73;3.10;;;;;;;10.64;36.85;100169.81;7343047;19;20371;-70
2023/04/07 05:36:06;;;;;;;10.48;3.90;;;;;;;10.86;36.60;100178.16;7344687;19;20114;-70
2023/04/07 05:38:33;;;;;;;9.38;3.20;;;;;;;11.07;36.11;100179.44;7341689;19;20014;-70
2023/04/07 05:41:05;;;;;;;14.43;3.72;;;;;;;11.13;35.81;100173.72;7342985;19;20018;-70
2023/04/07 05:43:32;;;;;;;5.47;3.42;;;;;;;11.13;35.67;100176.38;7342005;19;20030;-71
2023/04/07 05:45:57;;;;;;;9.27;3.42;;;;;;;11.39;35.35;100174.69;7343117;19;20015;-73
2023/04/07 05:48:22;;;;;;;14.15;3.80;;;;;;;11.90;34.78;100182.84;7342196;19;20025;-72
2023/04/07 05:50:47;;;;;;;9.93;4.32;;;;;;;12.60;33.73;100169.91;7343227;19;20024;-72
2023/04/07 05:53:17;;;;;;;11.98;3.90;;;;;;;13.38;32.75;100176.63;7341375;19;20030;-73
2023/04/07 05:55:44;;;;;;;14.50;4.10;;;;;;;13.92;31.89;100178.78;7340683;19;20021;-71
2023/04/07 05:58:32;;;;;;;18.58;4.80;;;;;;;14.16;31.23;100197.47;7342119;19;20037;-73
2023/04/07 06:01:00;;;;;;;11.82;3.03;;;;;;;14.63;30.87;100174.16;7341282;19;20026;-72
2023/04/07 06:03:27;;;;;;;8.10;3.88;;;;;;;14.85;30.45;100169.63;7341342;19;20015;-72
2023/04/07 06:05:59;;;;;;;5.93;3.53;;;;;;;15.14;29.97;100169.91;7339832;19;20023;-74
2023/04/07 06:08:26;;;;;;;11.35;3.85;;;;;;;15.74;29.44;100173.03;7340923;19;20019;-72
2023/04/07 06:10:52;;;;;;;9.20;3.40;;;;;;;16.19;28.87;100176.34;7341661;19;20078;-71
2023/04/07 06:13:16;;;;;;;8.43;4.03;;;;;;;15.44;28.88;100176.44;7340518;19;20019;-71
2023/04/07 06:15:41;;;;;;;12.93;3.97;;;;;;;14.89;29.72;100170.25;7341113;19;20014;-71
2023/04/07 06:18:07;;;;;;;9.43;4.18;;;;;;;15.66;29.47;100181.78;7339959;19;20014;-72
2023/04/07 06:20:32;;;;;;;7.70;4.25;;;;;;;15.85;28.39;100186.44;7341749;19;20010;-71
2023/04/07 06:22:58;;;;;;;12.25;4.35;;;;;;;16.19;28.80;100185.25;7339532;19;20019;-72
2023/04/07 06:25:25;;;;;;;11.20;4.15;;;;;;;16.56;28.11;100180.22;7343225;19;20027;-73
2023/04/07 06:27:53;;;;;;;15.15;5.03;;;;;;;17.17;27.66;100184.69;7342110;19;20078;-72
2023/04/07 06:30:21;;;;;;;7.32;3.75;;;;;;;17.00;27.19;100181.69;7342289;19;20025;-71
2023/04/07 06:32:47;;;;;;;14.27;4.95;;;;;;;17.20;27.42;100187.13;7342951;19;20017;-72
2023/04/07 06:35:12;;;;;;;13.45;5.00;;;;;;;17.61;26.87;100176.09;7339214;19;20014;-74
2023/04/07 06:37:38;;;;;;;13.80;4.63;;;;;;;18.26;26.36;100182.63;7340553;19;20078;-72
2023/04/07 06:40:07;;;;;;;16.25;4.60;;;;;;;19.49;25.36;100177.84;7339042;19;20070;-72
2023/04/07 06:42:35;;;;;;;7.28;4.47;;;;;;;20.51;24.51;100176.31;7349232;19;20304;-71
2023/04/07 06:45:09;;;;;;;12.93;5.13;;;;;;;21.34;24.01;100182.78;7346136;19;20021;-73
2023/04/07 06:47:41;;;;;;;12.23;4.50;;;;;;;21.93;23.16;100175.41;7351573;19;20014;-69
2023/04/07 06:50:11;;;;;;;13.55;5.38;;;;;;;22.33;22.79;100179.16;7352619;19;20010;-71
2023/04/07 06:52:39;;;;;;;10.25;4.35;;;;;;;22.44;22.25;100186.97;7356009;19;20365;-72
2023/04/07 06:55:04;;;;;;;12.73;4.15;;;;;;;22.62;21.49;100200.34;7346704;19;20023;-70
2023/04/07 06:57:32;;;;;;;11.40;5.10;;;;;;;22.95;21.98;100168.47;7346038;19;20018;-68
2023/04/07 07:00:06;;;;;;;12.30;4.63;;;;;;;23.64;22.00;100174.94;7349293;19;20021;-74
2023/04/07 07:02:32;;;;;;;;;;;;;;;24.67;23.18;100181.53;7353864;19;20036;-70
2023/04/07 07:04:59;;;;;;;13.13;4.72;;;;;;;24.69;20.71;100181.34;7346375;19;19923;-70
2023/04/07 07:07:27;;;;;;;10.43;4.75;;;;;;;24.31;19.95;100181.38;7344028;19;20537;-70
2023/04/07 07:09:53;;;;;;;14.45;4.45;;;;;;;24.11;20.50;100181.03;7345044;19;20482;-71
2023/04/07 07:12:21;;;;;;;19.90;5.15;;;;;;;23.70;21.13;100177.75;7347363;19;20019;-71
2023/04/07 07:14:54;;;;;;;15.70;4.90;;;;;;;23.91;20.71;100179.00;7345586;19;20459;-73
2023/04/07 07:17:31;;;;;;;10.40;4.85;;;;;;;23.88;20.75;100175.59;7345518;19;20023;-70
2023/04/07 07:20:00;;;;;;;22.05;5.38;;;;;;;23.84;20.35;100173.41;7348950;19;20014;-71
2023/04/07 07:22:29;;;;;;;8.00;4.35;;;;;;;24.45;19.86;100172.41;7347938;19;20006;-72
2023/04/07 07:24:54;;;;;;;12.05;5.05;;;;;;;24.90;19.85;100176.81;7343097;19;20121;-71
2023/04/07 07:27:20;;;;;;;10.38;5.50;;;;;;;25.41;19.38;100174.13;7342227;19;20330;-72
2023/04/07 07:29:46;;;;;;;8.88;4.78;;;;;;;25.97;19.19;100179.78;7345577;19;20018;-72
2023/04/07 07:32:12;;;;;;;15.02;4.50;;;;;;;26.51;18.86;100176.50;7346820;19;20014;-71
2023/04/07 07:34:38;;;;;;;16.23;4.45;;;;;;;26.00;18.07;100179.38;7356162;19;20025;-70
2023/04/07 07:37:09;;;;;;;17.75;5.63;;;;;;;25.47;18.63;100172.53;7351914;19;20029;-69
2023/04/07 07:39:41;;;;;;;18.13;4.93;;;;;;;25.77;19.34;100184.22;7351362;19;20022;-71
2023/04/07 07:42:07;;;;;;;10.87;4.40;;;;;;;25.26;18.82;100176.06;7350429;19;20074;-70
2023/04/07 07:44:34;;;;;;;13.43;4.95;;;;;;;25.45;19.12;100186.34;7348934;19;20264;-71
2023/04/07 07:47:01;;;;;;;9.43;4.53;;;;;;;26.06;18.87;100175.88;7344723;19;20106;-73
2023/04/07 07:49:28;;;;;;;11.20;4.68;;;;;;;26.93;18.05;100172.78;7345958;19;20018;-72
2023/04/07 07:51:56;;;;;;;16.35;6.55;;;;;;;27.33;17.94;100177.34;7348944;19;20498;-71
2023/04/07 07:54:25;;;;;;;18.63;4.47;;;;;;;27.28;17.56;100176.31;7347717;19;20080;-72
2023/04/07 07:56:51;;;;;;;8.82;4.90;;;;;;;26.97;17.43;100171.31;7348604;19;20018;-71
2023/04/07 07:59:18;;;;;;;8.52;4.45;;;;;;;26.65;17.53;100170.88;7349302;19;20029;-71
2023/04/07 08:01:44;;;;;;;11.48;5.18;;;;;;;27.39;17.33;100183.91;7346690;19;20021;-71
2023/04/07 08:04:10;;;;;;;12.60;5.38;;;;;;;27.03;17.39;100175.97;7346742;19;20031;-72
2023/04/07 08:06:36;;;;;;;7.72;4.10;;;;;;;26.38;17.18;100164.41;7349758;19;20029;-71
2023/04/07 08:09:02;;;;;;;7.30;4.43;;;;;;;26.37;17.62;100176.38;7350042;19;20014;-71
2023/04/07 08:11:29;;;;;;;7.65;3.65;;;;;;;26.64;17.47;100162.88;7347644;19;20513;-72
2023/04/07 08:13:56;;;;;;;5.20;3.50;;;;;;;27.33;17.26;100165.56;7349427;19;20025;-71
2023/04/07 08:16:22;;;;;;;6.95;4.00;;;;;;;27.77;16.77;100151.38;7353492;19;20045;-71
2023/04/07 08:18:48;;;;;;;11.32;4.30;;;;;;;27.94;16.96;100165.53;7351259;19;20022;-71
2023/04/07 08:21:14;;;;;;;8.15;4.60;;;;;;;27.07;16.75;100163.59;7347279;19;20359;-71
2023/04/07 08:23:40;;;;;;;8.98;4.55;;;;;;;26.56;17.49;100158.41;7347589;19;20022;-71
2023/04/07 08:26:05;;;;;;;11.55;4.63;;;;;;;26.94;17.33;100155.31;7348651;19;20467;-72
2023/04/07 08:28:32;;;;;;;5.75;3.80;;;;;;;27.79;16.74;100160.22;7348194;19;20379;-71
2023/04/07 08:30:57;;;;;;;9.82;5.10;;;;;;;29.01;16.49;100174.31;7344019;19;20038;-71
2023/04/07 08:33:25;;;;;;;12.52;4.85;;;;;;;27.44;16.48;100156.75;7344267;19;20035;-71
2023/04/07 08:35:50;;;;;;;10.40;4.70;;;;;;;27.72;16.51;100159.38;7349908;19;20007;-72
2023/04/07 08:38:21;;;;;;;9.68;4.05;;;;;;;27.14;16.57;100156.22;7352653;19;20131;-71
2023/04/07 08:40:53;;;;;;;10.23;3.80;;;;;;;27.59;16.53;100154.72;7353021;19;20033;-73
2023/04/07 08:43:23;;;;;;;7.95;3.70;;;;;;;27.80;16.20;100153.69;7347100;19;20014;-72
2023/04/07 08:45:54;;;;;;;9.75;4.00;;;;;;;27.62;16.16;100154.31;7346842;19;20292;-71
2023/04/07 08:48:22;;;;;;;7.72;3.83;;;;;;;28.30;16.12;100167.91;7342609;19;20030;-71
2023/04/07 08:50:56;;;;;;;7.63;3.42;;;;;;;26.89;16.46;100147.66;7347649;19;20018;-71
2023/04/07 08:53:29;;;;;;;6.15;3.72;;;;;;;27.47;16.79;100156.34;7344536;19;20019;-70
2023/04/07 08:56:00;;;;;;;9.32;4.10;;;;;;;27.72;16.18;100148.44;7342433;19;20022;-69
2023/04/07 08:58:26;;;;;;;10.75;3.65;;;;;;;27.46;15.98;100149.19;7344282;19;20014;-70
2023/04/07 09:00:51;;;;;;;6.47;4.05;;;;;;;27.58;16.37;100146.72;7342872;19;20039;-70
2023/04/07 09:03:17;;;;;;;9.35;4.22;;;;;;;28.34;15.95;100150.78;7342625;19;20011;-70
2023/04/07 09:05:46;;;;;;;16.95;4.93;;;;;;;27.61;16.80;100144.41;7346560;19;20018;-72
2023/04/07 09:08:12;;;;;;;7.07;3.90;;;;;;;28.62;15.94;100144.22;7342229;19;20533;-70
2023/04/07 09:10:36;;;;;;;9.90;4.28;;;;;;;28.08;15.69;100142.56;7340934;19;20509;-71
2023/04/07 09:13:08;;;;;;;6.05;4.70;;;;;;;27.62;15.84;100135.16;7343055;19;20023;-71
2023/04/07 09:15:33;;;;;;;8.02;4.20;;;;;;;26.85;16.32;100140.94;7341614;19;20023;-70
2023/04/07 09:17:58;;;;;;;6.63;4.10;;;;;;;25.57;17.12;100134.81;7340689;19;20010;-70
2023/04/07 09:20:54;;;;;;;9.60;3.92;;;;;;;26.21;17.38;100137.53;7343074;19;20011;-72
2023/04/07 09:23:32;;;;;;;11.27;4.38;;;;;;;27.72;16.83;100129.25;7342704;19;20015;-71
2023/04/07 09:26:00;;;;;;;6.20;4.30;;;;;;;28.08;16.06;100134.34;7341002;19;20010;-70
2023/04/07 09:28:42;;;;;;;8.85;4.38;;;;;;;28.27;16.07;100128.03;7344852;19;20018;-72
2023/04/07 09:31:08;;;;;;;5.25;3.85;;;;;;;27.52;15.82;100151.09;7339818;19;20014;-71
2023/04/07 09:33:35;;;;;;;7.47;3.65;;;;;;;27.62;15.73;100139.78;7341914;19;20014;-69
2023/04/07 09:36:04;;;;;;;5.97;3.25;;;;;;;26.83;16.05;100131.22;7341740;19;20588;-71
2023/04/07 09:38:37;;;;;;;4.88;3.75;;;;;;;28.00;16.14;100132.63;7341022;19;20103;-72
2023/04/07 09:41:06;;;;;;;7.32;4.07;;;;;;;28.42;15.69;100128.66;7340683;19;20018;-72
2023/04/07 09:43:45;;;;;;;11.30;3.92;;;;;;;29.33;15.43;100124.97;7339036;19;20011;-69
2023/04/07 09:46:12;;;;;;;7.20;3.33;;;;;;;30.38;15.01;100135.22;7340756;19;20492;-68
2023/04/07 09:48:38;;;;;;;8.82;3.65;;;;;;;28.67;14.46;100120.53;7339534;19;20018;-71
2023/04/07 09:51:11;;;;;;;6.65;4.00;;;;;;;26.98;15.44;100123.72;7347309;19;20032;-69
2023/04/07 09:53:48;;;;;;;9.00;4.28;;;;;;;25.97;16.63;100125.13;7341437;19;20034;-69
2023/04/07 09:56:21;;;;;;;7.75;4.38;;;;;;;25.96;16.81;100131.66;7342079;19;20019;-69
2023/04/07 09:58:50;;;;;;;11.13;3.92;;;;;;;26.83;16.31;100115.66;7339512;19;20397;-69
2023/04/07 10:01:20;;;;;;;9.30;4.90;;;;;;;28.22;15.71;100118.75;7338882;19;20010;-72
2023/04/07 10:03:47;;;;;;;5.35;3.80;;;;;;;29.47;14.77;100115.59;7340186;19;20357;-70
2023/04/07 10:06:13;;;;;;;4.95;3.53;;;;;;;30.16;14.29;100136.69;7340184;19;20034;-71
2023/04/07 10:08:42;;;;;;;6.38;3.80;;;;;;;29.87;14.21;100122.53;7336775;19;20018;-69
2023/04/07 10:11:08;;;;;;;6.10;3.60;;;;;;;27.20;15.08;100132.69;7338163;19;20014;-69
2023/04/07 10:13:38;;;;;;;8.05;4.43;;;;;;;25.35;16.79;100142.16;7339620;19;20022;-72
2023/04/07 10:16:05;;;;;;;6.20;3.80;;;;;;;23.76;18.09;100138.94;7338171;19;20018;-71
2023/04/07 10:18:33;;;;;;;8.10;4.13;;;;;;;22.54;18.85;100143.28;7344463;19;20054;-71
2023/04/07 10:21:06;;;;;;;6.28;3.10;;;;;;;20.88;19.80;100139.94;7338143;19;20014;-69
2023/04/07 10:23:40;;;;;;;7.47;3.60;;;;;;;19.16;20.92;100134.22;7346417;19;20037;-72
2023/04/07 10:26:07;;;;;;;;;;;;;;;18.76;21.14;100131.88;7346051;19;20102;-71
2023/04/07 10:28:37;;;;;;;6.45;3.55;;;;;;;17.08;22.80;100135.22;7344525;19;19919;-70
2023/04/07 10:31:09;;;;;;;5.40;2.65;;;;;;;17.49;22.50;100152.16;7347753;19;20045;-72
2023/04/07 10:33:50;;;;;;;6.10;2.67;;;;;;;15.76;24.12;100142.38;7345651;19;20015;-69
2023/04/07 10:36:16;;;;;;;6.28;3.10;;;;;;;14.81;25.09;100149.34;7348600;19;20382;-73
2023/04/07 10:38:41;;;;;;;6.07;3.10;;;;;;;14.13;25.82;100144.09;7345429;19;20011;-70
2023/04/07 10:41:35;;;;;;;15.63;3.97;;;;;;;14.02;25.78;100155.66;7344332;19;20044;-69
2023/04/07 10:44:01;;;;;;;9.20;3.65;;;;;;;13.89;26.29;100151.34;7344056;19;20018;-71
2023/04/07 10:46:47;;;;;;;6.90;2.75;;;;;;;14.06;25.87;100158.97;7345251;19;20652;-70
2023/04/07 10:49:15;;;;;;;6.15;2.80;;;;;;;13.95;26.07;100157.09;7348819;19;20319;-70
2023/04/07 10:51:41;;;;;;;8.90;3.47;;;;;;;13.45;26.64;100148.41;7347817;19;20025;-71
2023/04/07 10:54:22;;;;;;;3.65;2.70;;;;;;;13.17;26.82;100161.31;7350107;19;20035;-70
2023/04/07 10:57:01;;;;;;;11.45;3.22;;;;;;;13.02;27.14;100161.44;7349085;19;20015;-73
2023/04/07 10:59:35;;;;;;;6.47;2.45;;;;;;;12.88;27.47;100153.53;7350594;19;20037;-73
2023/04/07 11:02:13;;;;;;;12.70;3.10;;;;;;;13.00;27.27;100149.13;7349585;19;20026;-77
2023/04/07 11:04:44;;;;;;;5.10;2.70;;;;;;;13.01;27.29;100153.50;7348564;19;20039;-73
2023/04/07 11:07:10;;;;;;;9.63;3.17;;;;;;;12.91;27.40;100156.00;7348150;19;20493;-72
2023/04/07 11:09:36;;;;;;;4.63;2.92;;;;;;;12.84;27.51;100153.91;7344744;19;20082;-75
2023/04/07 11:12:03;;;;;;;6.05;3.05;;;;;;;12.84;27.50;100156.56;7351173;19;20014;-72
2023/04/07 11:14:29;;;;;;;4.57;2.95;;;;;;;12.89;27.82;100152.59;7344466;19;20022;-71
2023/04/07 11:17:00;;;;;;;5.43;2.05;;;;;;;13.34;26.61;100151.03;7345285;19;20362;-72
2023/04/07 11:19:25;;;;;;;6.80;3.28;;;;;;;12.88;27.29;100152.69;7346950;19;20011;-71
2023/04/07 11:22:15;;;;;;;6.57;2.90;;;;;;;12.70;27.59;100155.75;7346814;19;20010;-73
2023/04/07 11:24:45;;;;;;;5.03;2.20;;;;;;;12.89;27.55;100152.59;7347482;19;20035;-72
2023/04/07 11:27:16;;;;;;;6.50;3.05;;;;;;;12.64;27.91;100148.16;7346248;19;20025;-72
2023/04/07 11:29:43;;;;;;;5.28;3.05;;;;;;;12.61;27.80;100151.06;7348083;19;20011;-72
2023/04/07 11:32:11;;;;;;;10.38;3.53;;;;;;;12.63;28.02;100149.13;7347932;19;20471;-74
2023/04/07 11:34:37;;;;;;;5.25;2.60;;;;;;;12.55;28.21;100139.94;7345490;19;20033;-71
2023/04/07 11:37:25;;;;;;;6.82;3.10;;;;;;;12.52;28.75;100143.69;7345638;19;20458;-72